createdAt,value
2023-04-20T00:01:24.767Z,13.80
2023-04-20T00:03:51.953Z,5.95
2023-04-20T00:06:18.915Z,6.50
2023-04-20T00:08:45.967Z,13.63
2023-04-20T00:11:12.637Z,14.25
2023-04-20T00:13:39.295Z,8.25
2023-04-20T00:16:06.267Z,11.75
2023-04-20T00:18:32.977Z,7.88
2023-04-20T00:20:59.797Z,11.45
2023-04-20T00:23:26.445Z,6.70
2023-04-20T00:25:54.520Z,12.95
2023-04-20T00:28:21.294Z,10.23
2023-04-20T00:30:47.987Z,9.82
2023-04-20T00:33:14.691Z,7.78
2023-04-20T00:35:41.481Z,10.60
2023-04-20T00:38:08.194Z,15.20
2023-04-20T00:40:35.681Z,9.75
2023-04-20T00:43:12.124Z,10.07
2023-04-20T00:45:38.942Z,10.57
2023-04-20T00:48:06.000Z,15.70
2023-04-20T00:50:33.567Z,12.10
2023-04-20T00:53:01.088Z,13.73
2023-04-20T00:55:28.082Z,12.98
2023-04-20T00:57:54.760Z,12.70
2023-04-20T01:00:21.693Z,15.32
2023-04-20T01:02:48.762Z,13.82
2023-04-20T01:05:15.678Z,13.65
2023-04-20T01:07:43.562Z,9.80
2023-04-20T01:10:10.571Z,13.57
2023-04-20T01:12:37.280Z,12.50
2023-04-20T01:15:05.862Z,12.60
2023-04-20T01:17:33.378Z,11.30
2023-04-20T01:20:00.456Z,13.52
2023-04-20T01:22:27.197Z,10.75
2023-04-20T01:24:54.175Z,9.75
2023-04-20T01:27:20.848Z,14.38
2023-04-20T01:29:47.611Z,16.10
2023-04-20T01:32:14.289Z,10.23
2023-04-20T01:34:41.260Z,12.38
2023-04-20T01:37:08.328Z,14.02
2023-04-20T01:39:38.951Z,17.77
2023-04-20T01:42:06.135Z,20.35
2023-04-20T01:44:32.877Z,11.63
2023-04-20T01:46:59.773Z,16.27
2023-04-20T01:49:26.763Z,16.23
2023-04-20T01:51:53.562Z,17.15
2023-04-20T01:54:20.246Z,15.50
2023-04-20T01:56:46.918Z,9.55
2023-04-20T01:59:13.710Z,17.65
2023-04-20T02:01:40.425Z,14.23
2023-04-20T02:04:07.151Z,13.98
2023-04-20T02:06:33.818Z,13.73
2023-04-20T02:09:00.550Z,17.80
2023-04-20T02:11:27.330Z,19.10
2023-04-20T02:13:54.104Z,12.32
2023-04-20T02:16:21.864Z,14.23
2023-04-20T02:18:48.595Z,11.25
2023-04-20T02:21:15.306Z,21.58
2023-04-20T02:23:42.090Z,9.63
2023-04-20T02:26:08.831Z,15.27
2023-04-20T02:28:36.028Z,12.18
2023-04-20T02:31:02.740Z,11.20
2023-04-20T02:33:29.527Z,15.10
2023-04-20T02:35:56.183Z,16.35
2023-04-20T02:38:22.942Z,14.27
2023-04-20T02:40:49.644Z,16.95
2023-04-20T02:43:16.411Z,16.58
2023-04-20T02:45:43.130Z,21.33
2023-04-20T02:48:09.805Z,12.68
2023-04-20T02:50:37.985Z,19.10
2023-04-20T02:53:04.766Z,16.20
2023-04-20T02:55:31.537Z,14.60
2023-04-20T02:57:58.240Z,14.68
2023-04-20T03:00:24.991Z,14.35
2023-04-20T03:02:52.158Z,15.60
2023-04-20T03:05:19.015Z,20.88
2023-04-20T03:07:45.747Z,20.83
2023-04-20T03:10:12.766Z,20.17
2023-04-20T03:12:39.466Z,19.48
2023-04-20T03:15:07.258Z,23.58
2023-04-20T03:17:34.204Z,19.85
2023-04-20T03:20:00.977Z,18.40
2023-04-20T03:22:27.653Z,17.35
2023-04-20T03:24:54.350Z,21.48
2023-04-20T03:27:21.075Z,17.95
2023-04-20T03:29:48.831Z,14.32
2023-04-20T03:32:15.598Z,14.13
2023-04-20T03:34:42.977Z,22.48
2023-04-20T03:37:09.741Z,23.95
2023-04-20T03:39:36.419Z,14.35
2023-04-20T03:42:03.728Z,10.75
2023-04-20T03:44:30.452Z,13.45
2023-04-20T03:46:57.142Z,18.63
2023-04-20T03:49:25.113Z,23.38
2023-04-20T03:51:52.065Z,20.38
2023-04-20T03:54:18.764Z,23.00
2023-04-20T03:56:46.058Z,17.58
2023-04-20T03:59:12.809Z,14.07
2023-04-20T04:01:39.468Z,20.58
2023-04-20T04:04:06.575Z,17.02
2023-04-20T04:06:33.573Z,19.50
2023-04-20T04:09:00.300Z,16.85
2023-04-20T04:11:29.970Z,12.73
2023-04-20T04:13:58.064Z,13.38
2023-04-20T04:16:24.885Z,15.63
2023-04-20T04:18:51.758Z,15.43
2023-04-20T04:21:18.495Z,14.98
2023-04-20T04:23:45.565Z,17.25
2023-04-20T04:26:12.783Z,16.65
2023-04-20T04:28:40.010Z,19.42
2023-04-20T04:31:07.782Z,24.90
2023-04-20T04:33:34.740Z,21.58
2023-04-20T04:36:01.583Z,24.65
2023-04-20T04:38:28.790Z,14.10
2023-04-20T04:40:56.403Z,16.05
2023-04-20T04:43:25.636Z,17.38
2023-04-20T04:45:53.455Z,15.30
2023-04-20T04:48:20.383Z,14.15
2023-04-20T04:50:47.425Z,14.07
2023-04-20T04:53:14.205Z,10.23
2023-04-20T04:55:41.104Z,16.90
2023-04-20T04:58:07.802Z,20.10
2023-04-20T05:00:34.916Z,13.52
2023-04-20T05:03:01.746Z,12.02
2023-04-20T05:05:28.532Z,21.17
2023-04-20T05:07:55.322Z,16.92
2023-04-20T05:10:22.120Z,17.50
2023-04-20T05:12:49.003Z,20.00
2023-04-20T05:15:15.713Z,18.88
2023-04-20T05:17:42.528Z,21.10
2023-04-20T05:20:11.412Z,16.95
2023-04-20T05:22:38.369Z,19.40
2023-04-20T05:25:06.414Z,15.32
2023-04-20T05:27:33.806Z,16.05
2023-04-20T05:30:16.534Z,15.10
2023-04-20T05:32:47.249Z,17.55
2023-04-20T05:35:16.061Z,16.02
2023-04-20T05:37:42.793Z,16.83
2023-04-20T05:40:09.820Z,15.10
2023-04-20T05:42:36.689Z,21.40
2023-04-20T05:45:03.646Z,16.33
2023-04-20T05:47:30.486Z,29.88
2023-04-20T05:49:57.214Z,26.30
2023-04-20T05:52:23.944Z,17.27
2023-04-20T05:54:50.953Z,16.58
2023-04-20T05:57:17.729Z,22.33
2023-04-20T05:59:44.730Z,24.15
2023-04-20T06:02:11.495Z,16.58
2023-04-20T06:04:38.380Z,22.52
2023-04-20T06:07:05.246Z,15.80
2023-04-20T06:09:31.966Z,15.65
2023-04-20T06:12:00.298Z,19.63
2023-04-20T06:14:26.987Z,11.90
2023-04-20T06:16:53.703Z,24.08
2023-04-20T06:19:20.478Z,15.52
2023-04-20T06:21:47.292Z,22.65
2023-04-20T06:24:14.011Z,17.80
2023-04-20T06:26:41.052Z,30.27
2023-04-20T06:29:07.831Z,16.00
2023-04-20T06:31:34.640Z,16.25
2023-04-20T06:34:01.458Z,16.17
2023-04-20T06:36:28.628Z,16.70
2023-04-20T06:38:55.437Z,11.55
2023-04-20T06:41:22.307Z,14.77
2023-04-20T06:43:49.001Z,19.02
2023-04-20T06:46:15.802Z,28.42
2023-04-20T06:48:42.518Z,17.05
2023-04-20T06:51:09.179Z,12.40
2023-04-20T06:53:35.888Z,14.32
2023-04-20T06:56:02.583Z,17.45
2023-04-20T06:58:29.291Z,14.00
2023-04-20T07:00:56.213Z,13.88
2023-04-20T07:03:23.104Z,12.45
2023-04-20T07:05:49.885Z,16.50
2023-04-20T07:08:16.627Z,19.00
2023-04-20T07:10:43.391Z,13.68
2023-04-20T07:13:10.053Z,18.75
2023-04-20T07:15:36.777Z,13.07
2023-04-20T07:18:03.729Z,14.48
2023-04-20T07:20:31.118Z,15.77
2023-04-20T07:22:57.963Z,12.00
2023-04-20T07:25:25.740Z,19.02
2023-04-20T07:27:52.504Z,21.20
2023-04-20T07:30:19.298Z,14.10
2023-04-20T07:32:46.065Z,16.35
2023-04-20T07:35:12.743Z,21.60
2023-04-20T07:37:40.633Z,14.55
2023-04-20T07:40:08.295Z,16.70
2023-04-20T07:42:36.978Z,19.85
2023-04-20T07:45:05.144Z,15.07
2023-04-20T07:47:33.210Z,10.38
2023-04-20T07:49:59.915Z,14.82
2023-04-20T07:52:26.609Z,11.35
2023-04-20T07:54:59.813Z,25.67
2023-04-20T07:57:26.790Z,15.32
2023-04-20T07:59:53.590Z,22.08
2023-04-20T08:02:20.871Z,14.18
2023-04-20T08:04:49.161Z,25.58
2023-04-20T08:07:16.444Z,12.85
2023-04-20T08:09:43.268Z,20.70
2023-04-20T08:12:10.052Z,25.33
2023-04-20T08:14:38.141Z,11.95
2023-04-20T08:17:04.872Z,13.88
2023-04-20T08:19:31.711Z,13.48
2023-04-20T08:21:59.357Z,16.05
2023-04-20T08:24:27.073Z,13.63
2023-04-20T08:26:53.788Z,11.00
2023-04-20T08:29:20.450Z,9.40
2023-04-20T08:31:49.174Z,14.85
2023-04-20T08:34:17.512Z,17.60
2023-04-20T08:36:44.255Z,8.30
2023-04-20T08:39:14.449Z,9.02
2023-04-20T08:41:41.172Z,11.30
2023-04-20T08:44:08.024Z,10.00
2023-04-20T08:46:35.151Z,9.18
2023-04-20T08:49:05.294Z,11.57
2023-04-20T08:51:32.672Z,9.75
2023-04-20T08:54:06.118Z,12.18
2023-04-20T08:56:37.874Z,8.13
2023-04-20T08:59:05.498Z,6.18
2023-04-20T09:01:35.558Z,7.15
2023-04-20T09:04:03.592Z,13.30
2023-04-20T09:06:31.145Z,7.28
2023-04-20T09:08:57.992Z,9.95
2023-04-20T09:11:25.489Z,14.27
2023-04-20T09:14:10.101Z,10.23
2023-04-20T09:16:37.628Z,5.38
2023-04-20T09:19:04.517Z,8.15
2023-04-20T09:21:32.498Z,4.80
2023-04-20T09:24:06.340Z,12.30
2023-04-20T09:29:01.724Z,10.02
2023-04-20T09:31:28.564Z,6.88
2023-04-20T09:33:58.991Z,4.70
2023-04-20T09:36:34.502Z,4.78
2023-04-20T09:39:12.026Z,6.30
2023-04-20T09:41:39.511Z,6.88
2023-04-20T09:44:06.808Z,12.00
2023-04-20T09:46:35.118Z,7.38
2023-04-20T09:49:03.942Z,9.40
2023-04-20T09:51:32.342Z,7.00
2023-04-20T09:54:00.189Z,10.43
2023-04-20T09:56:27.725Z,9.90
2023-04-20T09:58:55.098Z,12.50
2023-04-20T10:01:24.715Z,6.25
2023-04-20T10:03:54.239Z,4.82
2023-04-20T10:06:32.103Z,4.95
2023-04-20T10:09:01.145Z,6.05
2023-04-20T10:11:49.013Z,10.02
2023-04-20T10:14:20.355Z,5.28
2023-04-20T10:16:57.991Z,5.13
2023-04-20T10:19:24.682Z,12.43
2023-04-20T10:21:51.467Z,5.18
2023-04-20T10:24:30.719Z,8.43
2023-04-20T10:26:58.012Z,5.40
2023-04-20T10:29:28.104Z,9.07
2023-04-20T10:31:55.221Z,7.43
2023-04-20T10:34:32.102Z,6.03
2023-04-20T10:37:11.703Z,4.13
2023-04-20T10:39:45.478Z,4.95
2023-04-20T10:44:49.597Z,3.70
2023-04-20T10:47:38.087Z,7.35
2023-04-20T10:50:12.262Z,6.32
2023-04-20T10:52:40.276Z,9.63
2023-04-20T10:55:08.411Z,3.58
2023-04-20T10:57:36.307Z,9.38
2023-04-20T11:00:17.586Z,4.40
2023-04-20T11:02:51.618Z,5.68
2023-04-20T11:05:19.125Z,2.33
2023-04-20T11:07:55.257Z,22.35
2023-04-20T11:10:36.784Z,4.82
2023-04-20T11:13:03.500Z,5.80
2023-04-20T11:15:33.903Z,11.43
2023-04-20T11:18:08.258Z,3.53
2023-04-20T11:20:35.210Z,13.90
2023-04-20T11:23:04.877Z,6.40
2023-04-20T11:25:31.929Z,11.23
2023-04-20T11:28:11.180Z,5.68
2023-04-20T11:30:41.575Z,5.85
2023-04-20T11:33:08.829Z,14.73
2023-04-20T11:35:41.849Z,3.90
2023-04-20T11:38:08.709Z,5.38
2023-04-20T11:40:35.838Z,5.63
2023-04-20T11:43:04.558Z,6.85
2023-04-20T11:45:35.698Z,4.50
2023-04-20T11:48:04.469Z,3.78
2023-04-20T11:50:31.523Z,3.55
2023-04-20T11:52:58.406Z,4.50
2023-04-20T11:55:25.146Z,2.60
2023-04-20T11:57:52.025Z,3.40
2023-04-20T12:00:19.548Z,2.58
2023-04-20T12:02:46.502Z,4.43
2023-04-20T12:05:14.248Z,3.72
2023-04-20T12:07:41.282Z,10.73
2023-04-20T12:10:08.653Z,9.50
2023-04-20T12:12:35.672Z,7.18
2023-04-20T12:15:02.360Z,9.07
2023-04-20T12:17:29.046Z,6.18
2023-04-20T12:19:55.755Z,2.53
2023-04-20T12:22:22.503Z,7.82
2023-04-20T12:24:49.193Z,7.50
2023-04-20T12:27:16.320Z,5.68
2023-04-20T12:29:43.055Z,15.68
2023-04-20T12:32:09.790Z,3.80
2023-04-20T12:34:36.472Z,7.50
2023-04-20T12:37:03.155Z,2.97
2023-04-20T12:39:29.806Z,3.08
2023-04-20T12:41:57.341Z,2.08
2023-04-20T12:44:24.081Z,1.70
2023-04-20T12:46:50.842Z,4.90
2023-04-20T12:49:17.877Z,8.05
2023-04-20T12:51:44.853Z,3.75
2023-04-20T12:54:11.991Z,3.10
2023-04-20T12:56:38.687Z,8.20
2023-04-20T12:59:05.430Z,8.43
2023-04-20T13:01:32.244Z,8.23
2023-04-20T13:03:59.128Z,3.92
2023-04-20T13:06:26.506Z,13.48
2023-04-20T13:08:53.353Z,3.78
2023-04-20T13:11:20.073Z,13.32
2023-04-20T13:13:47.101Z,5.65
2023-04-20T13:16:14.290Z,6.15
2023-04-20T13:18:41.005Z,8.45
2023-04-20T13:21:08.368Z,5.03
2023-04-20T13:23:35.236Z,4.35
2023-04-20T13:26:02.002Z,7.13
2023-04-20T13:28:28.753Z,4.35
2023-04-20T13:30:57.423Z,6.75
2023-04-20T13:33:24.204Z,3.20
2023-04-20T13:35:51.399Z,7.07
2023-04-20T13:38:18.204Z,2.33
2023-04-20T13:40:46.751Z,2.85
2023-04-20T13:43:13.426Z,5.05
2023-04-20T13:45:40.387Z,4.75
2023-04-20T13:48:07.391Z,7.88
2023-04-20T13:50:34.206Z,1.85
2023-04-20T13:53:03.052Z,2.60
2023-04-20T13:55:30.624Z,6.50
2023-04-20T13:57:57.409Z,3.80
2023-04-20T14:00:25.961Z,3.17
2023-04-20T14:02:52.817Z,6.30
2023-04-20T14:05:19.707Z,4.45
2023-04-20T14:07:46.436Z,16.85
2023-04-20T14:10:13.142Z,6.20
2023-04-20T14:12:39.842Z,7.53
2023-04-20T14:15:06.961Z,6.10
2023-04-20T14:17:33.688Z,8.25
2023-04-20T14:20:00.570Z,13.32
2023-04-20T14:22:32.047Z,6.57
2023-04-20T14:24:58.767Z,8.27
2023-04-20T14:27:25.558Z,7.07
2023-04-20T14:29:52.247Z,11.85
2023-04-20T14:32:19.650Z,8.82
2023-04-20T14:34:46.757Z,4.70
2023-04-20T14:37:13.566Z,6.20
2023-04-20T14:39:40.408Z,7.72
2023-04-20T14:42:07.685Z,16.33
2023-04-20T14:44:34.537Z,6.20
2023-04-20T14:47:02.134Z,7.60
2023-04-20T14:49:29.063Z,15.43
2023-04-20T14:51:55.809Z,6.32
2023-04-20T14:54:22.497Z,4.90
2023-04-20T14:56:49.182Z,7.70
2023-04-20T14:59:15.851Z,6.10
2023-04-20T15:01:51.632Z,7.15
2023-04-20T15:04:28.396Z,13.32
2023-04-20T15:06:55.333Z,10.48
2023-04-20T15:09:22.004Z,5.75
2023-04-20T15:11:48.709Z,7.10
2023-04-20T15:14:15.551Z,6.05
2023-04-20T15:16:42.644Z,12.25
2023-04-20T15:19:09.402Z,8.02
2023-04-20T15:21:36.094Z,7.75
2023-04-20T15:24:02.955Z,12.40
2023-04-20T15:26:29.891Z,9.57
2023-04-20T15:28:57.578Z,8.00
2023-04-20T15:31:24.402Z,13.02
2023-04-20T15:33:51.386Z,12.05
2023-04-20T15:36:18.349Z,11.77
2023-04-20T15:38:45.561Z,10.02
2023-04-20T15:41:12.370Z,12.40
2023-04-20T15:43:39.554Z,17.02
2023-04-20T15:46:06.604Z,27.15
2023-04-20T15:48:33.363Z,19.15
2023-04-20T15:51:00.214Z,16.23
2023-04-20T15:53:26.997Z,26.48
2023-04-20T15:55:53.719Z,27.67
2023-04-20T15:58:20.504Z,15.25
2023-04-20T16:00:47.497Z,14.98
2023-04-20T16:03:14.573Z,9.25
2023-04-20T16:05:41.495Z,12.40
2023-04-20T16:08:08.501Z,8.80
2023-04-20T16:10:35.431Z,20.52
2023-04-20T16:13:03.522Z,15.15
2023-04-20T16:15:30.643Z,13.80
2023-04-20T16:17:58.658Z,14.15
2023-04-20T16:20:25.414Z,10.15
2023-04-20T16:22:52.051Z,13.02
2023-04-20T16:25:23.080Z,13.38
2023-04-20T16:27:51.696Z,15.02
2023-04-20T16:30:18.609Z,11.32
2023-04-20T16:44:16.668Z,13.50
2023-04-20T16:46:46.478Z,11.10
2023-04-20T16:49:13.698Z,8.07
2023-04-20T16:51:40.459Z,7.20
2023-04-20T16:54:07.139Z,6.55
2023-04-20T16:56:33.776Z,9.93
2023-04-20T16:59:00.538Z,5.65
2023-04-20T17:01:27.651Z,10.05
2023-04-20T17:03:54.638Z,6.68
2023-04-20T17:06:21.421Z,10.43
2023-04-20T17:08:49.329Z,9.85
2023-04-20T17:11:18.055Z,9.75
2023-04-20T17:13:44.941Z,9.40
2023-04-20T17:16:11.717Z,11.90
2023-04-20T17:18:41.704Z,11.32
2023-04-20T17:21:08.679Z,9.35
2023-04-20T17:23:35.923Z,8.35
2023-04-20T17:26:03.153Z,10.70
2023-04-20T17:28:29.946Z,8.48
2023-04-20T17:30:56.708Z,12.95
2023-04-20T17:33:23.429Z,6.38
2023-04-20T17:35:50.367Z,5.88
2023-04-20T17:38:17.135Z,6.85
2023-04-20T17:40:43.798Z,7.45
2023-04-20T17:43:10.475Z,6.40
2023-04-20T17:45:37.208Z,5.80
2023-04-20T17:48:04.251Z,11.02
2023-04-20T17:50:31.115Z,8.20
2023-04-20T17:52:57.878Z,4.60
2023-04-20T17:55:24.682Z,4.70
2023-04-20T17:57:51.454Z,9.80
2023-04-20T18:00:18.711Z,7.85
2023-04-20T18:02:45.622Z,5.32
2023-04-20T18:05:12.703Z,9.27
2023-04-20T18:07:39.622Z,6.32
2023-04-20T18:10:06.981Z,8.07
2023-04-20T18:12:33.815Z,9.70
2023-04-20T18:15:00.781Z,5.28
2023-04-20T18:17:27.644Z,8.60
2023-04-20T18:19:54.353Z,9.82
2023-04-20T18:22:22.297Z,6.07
2023-04-20T18:24:52.052Z,11.52
2023-04-20T18:27:18.871Z,6.32
2023-04-20T18:29:45.634Z,7.30
2023-04-20T18:32:12.918Z,9.70
2023-04-20T18:34:39.747Z,7.72
2023-04-20T18:37:07.513Z,7.55
2023-04-20T18:39:34.382Z,11.93
2023-04-20T18:42:02.216Z,10.45
2023-04-20T18:44:29.375Z,10.80
2023-04-20T18:46:56.340Z,20.27
2023-04-20T18:49:23.054Z,14.05
2023-04-20T18:51:49.731Z,8.02
2023-04-20T18:54:16.638Z,8.80
2023-04-20T18:56:43.413Z,9.75
2023-04-20T18:59:10.768Z,11.52
2023-04-20T19:01:40.687Z,6.65
2023-04-20T19:04:10.930Z,10.00
2023-04-20T19:06:37.922Z,7.55
2023-04-20T19:09:07.314Z,9.07
2023-04-20T19:11:34.952Z,10.52
2023-04-20T19:14:01.787Z,10.20
2023-04-20T19:16:31.875Z,14.57
2023-04-20T19:18:59.000Z,12.57
2023-04-20T19:21:25.825Z,14.63
2023-04-20T19:23:52.533Z,13.00
2023-04-20T19:26:19.438Z,12.90
2023-04-20T19:28:46.208Z,11.40
2023-04-20T19:31:13.256Z,9.40
2023-04-20T19:33:40.341Z,11.05
2023-04-20T19:36:08.110Z,12.95
2023-04-20T19:38:35.186Z,17.40
2023-04-20T19:41:01.899Z,9.30
2023-04-20T19:43:28.664Z,10.75
2023-04-20T19:45:55.807Z,15.90
2023-04-20T19:48:22.561Z,13.48
2023-04-20T19:50:50.726Z,15.93
2023-04-20T19:53:19.163Z,19.02
2023-04-20T19:55:45.927Z,10.82
2023-04-20T19:58:13.370Z,12.00
2023-04-20T20:00:40.303Z,13.05
2023-04-20T20:03:12.178Z,17.25
2023-04-20T20:05:39.077Z,10.63
2023-04-20T20:08:06.478Z,11.15
2023-04-20T20:10:33.301Z,14.93
2023-04-20T20:13:00.127Z,11.35
2023-04-20T20:15:26.855Z,13.35
2023-04-20T20:17:58.280Z,18.52
2023-04-20T20:20:32.301Z,13.68
2023-04-20T20:22:59.629Z,11.93
2023-04-20T20:25:26.464Z,9.23
2023-04-20T20:27:53.194Z,17.58
2023-04-20T20:30:19.899Z,11.77
2023-04-20T20:32:46.682Z,11.85
2023-04-20T20:35:13.524Z,14.82
2023-04-20T20:37:40.737Z,10.20
2023-04-20T20:40:10.331Z,17.30
2023-04-20T20:42:40.285Z,10.20
2023-04-20T20:45:10.748Z,10.77
2023-04-20T20:47:37.459Z,14.73
2023-04-20T20:50:04.583Z,12.10
2023-04-20T20:52:31.447Z,12.52
2023-04-20T20:54:58.118Z,14.77
2023-04-20T20:57:24.785Z,14.20
2023-04-20T20:59:53.485Z,13.82
2023-04-20T21:02:20.502Z,11.50
2023-04-20T21:04:47.323Z,14.05
2023-04-20T21:07:14.259Z,13.85
2023-04-20T21:09:41.065Z,9.95
2023-04-20T21:12:07.735Z,13.65
2023-04-20T21:14:34.608Z,10.15
2023-04-20T21:17:01.449Z,19.45
2023-04-20T21:19:28.176Z,10.85
2023-04-20T21:21:54.885Z,15.98
2023-04-20T21:24:22.534Z,15.82
2023-04-20T21:26:49.238Z,10.88
2023-04-20T21:29:15.916Z,17.35
2023-04-20T21:31:42.673Z,16.50
2023-04-20T21:34:09.439Z,15.68
2023-04-20T21:36:36.091Z,16.08
2023-04-20T21:39:03.700Z,17.13
2023-04-20T21:41:32.136Z,22.65
2023-04-20T21:43:58.916Z,19.45
2023-04-20T21:46:25.706Z,16.33
2023-04-20T21:48:52.424Z,16.77
2023-04-20T21:51:19.189Z,15.50
2023-04-20T21:53:46.301Z,10.65
2023-04-20T21:56:14.782Z,18.13
2023-04-20T21:58:41.490Z,16.00
2023-04-20T22:01:08.499Z,16.65
2023-04-20T22:03:37.201Z,16.77
2023-04-20T22:06:04.644Z,18.70
2023-04-20T22:08:32.025Z,16.83
2023-04-20T22:10:58.781Z,17.13
2023-04-20T22:13:25.575Z,16.05
2023-04-20T22:15:52.713Z,17.20
2023-04-20T22:18:19.666Z,12.40
2023-04-20T22:20:46.517Z,18.42
2023-04-20T22:23:13.264Z,25.55
2023-04-20T22:25:40.682Z,17.17
2023-04-20T22:28:07.512Z,16.00
2023-04-20T22:30:34.458Z,22.35
2023-04-20T22:33:01.418Z,14.43
2023-04-20T22:35:28.285Z,21.63
2023-04-20T22:37:55.187Z,18.85
2023-04-20T22:40:22.263Z,18.38
2023-04-20T22:42:49.108Z,14.52
2023-04-20T22:45:19.462Z,15.05
2023-04-20T22:47:46.977Z,12.32
2023-04-20T22:50:14.009Z,22.23
2023-04-20T22:52:40.747Z,15.07
2023-04-20T22:55:08.275Z,20.10
2023-04-20T22:57:35.038Z,14.95
2023-04-20T23:00:10.085Z,19.38
2023-04-20T23:02:37.595Z,17.10
2023-04-20T23:05:05.739Z,20.77
2023-04-20T23:07:32.984Z,22.23
2023-04-20T23:09:59.950Z,16.27
2023-04-20T23:12:29.334Z,20.38
2023-04-20T23:14:56.666Z,22.80
2023-04-20T23:17:23.571Z,21.30
2023-04-20T23:19:51.046Z,16.15
2023-04-20T23:22:17.943Z,23.65
2023-04-20T23:24:44.665Z,26.17
2023-04-20T23:27:11.326Z,18.98
2023-04-20T23:29:38.042Z,15.57
2023-04-20T23:32:05.071Z,16.40
2023-04-20T23:34:31.845Z,20.42
2023-04-20T23:36:58.668Z,15.93
2023-04-20T23:39:25.471Z,17.13
2023-04-20T23:41:52.239Z,20.73
2023-04-20T23:44:18.909Z,18.02
2023-04-20T23:46:46.322Z,19.75
2023-04-20T23:49:13.047Z,18.55
2023-04-20T23:51:39.724Z,18.55
2023-04-20T23:54:06.485Z,21.23
2023-04-20T23:56:33.204Z,26.00
2023-04-20T23:58:59.979Z,21.85
